Terminal Aerodrome Forecast
Issued by NWS Cheyenne, WY

Home | Current Version | Previous Version | Text Only | Print | Product List | Glossary On
Versions: 1 2 3 4 5 6 7 8 9 10 11 12 13 14 15 16 17 18 19 20 21 22 23 24 25 26 27 28 29 30 31 32 33
000
FTUS45 KCYS 010213 AAB
TAFCYS
TAF AMD
KCYS 010213Z 0102/0124 28016G28KT P6SM VCTS BKN100CB
      TEMPO 0102/0104 VRB20G35KT 4SM TSRA BKN040CB
     FM011900 10008G20KT P6SM SCT100
     FM012100 10010G20KT P6SM VCTS BKN100CB=

USA.gov is the U.S. government's official web portal to all federal, state and local government web resources and services.